createdAt,value
2023-05-17T00:02:06.192Z,1.02
2023-05-17T00:04:34.991Z,1.20
2023-05-17T00:07:04.422Z,1.10
2023-05-17T00:09:32.998Z,1.33
2023-05-17T00:12:01.764Z,1.20
2023-05-17T00:14:31.783Z,1.20
2023-05-17T00:17:00.587Z,1.27
2023-05-17T00:19:29.403Z,1.25
2023-05-17T00:21:58.012Z,1.10
2023-05-17T00:24:27.307Z,1.20
2023-05-17T00:26:55.978Z,1.05
2023-05-17T00:29:24.660Z,1.23
2023-05-17T00:31:54.800Z,1.20
2023-05-17T00:34:23.856Z,1.10
2023-05-17T00:36:52.524Z,1.20
2023-05-17T00:39:21.335Z,1.08
2023-05-17T00:41:50.068Z,1.17
2023-05-17T00:44:18.736Z,1.42
2023-05-17T00:46:48.033Z,1.10
2023-05-17T00:49:18.466Z,1.20
2023-05-17T00:51:47.504Z,1.30
2023-05-17T00:54:17.140Z,1.23
2023-05-17T00:56:46.378Z,1.23
2023-05-17T00:59:15.375Z,1.30
2023-05-17T01:01:44.901Z,1.20
2023-05-17T01:04:14.461Z,1.30
2023-05-17T01:06:44.658Z,1.13
2023-05-17T01:09:16.644Z,1.30
2023-05-17T01:11:55.905Z,1.27
2023-05-17T01:14:38.555Z,1.60
2023-05-17T01:17:13.674Z,1.30
2023-05-17T01:19:56.062Z,1.30
2023-05-17T01:22:34.002Z,1.50
2023-05-17T01:25:28.364Z,1.45
2023-05-17T01:28:02.582Z,1.20
2023-05-17T01:30:31.827Z,1.60
2023-05-17T01:33:01.543Z,1.60
2023-05-17T01:35:30.402Z,1.70
2023-05-17T01:38:00.521Z,1.70
2023-05-17T01:40:29.459Z,1.70
2023-05-17T01:43:10.553Z,1.77
2023-05-17T01:45:42.790Z,1.60
2023-05-17T01:48:17.092Z,1.70
2023-05-17T01:50:51.033Z,1.80
2023-05-17T01:53:26.892Z,1.85
2023-05-17T01:56:02.357Z,1.70
2023-05-17T01:58:35.901Z,1.90
2023-05-17T02:01:06.047Z,2.10
2023-05-17T02:03:34.757Z,2.10
2023-05-17T02:06:03.757Z,2.15
2023-05-17T02:08:32.372Z,1.90
2023-05-17T02:11:00.926Z,2.20
2023-05-17T02:13:33.977Z,2.25
2023-05-17T02:16:03.066Z,2.10
2023-05-17T02:18:32.543Z,2.05
2023-05-17T02:21:01.598Z,1.88
2023-05-17T02:23:30.548Z,1.63
2023-05-17T02:25:59.131Z,1.60
2023-05-17T02:28:33.402Z,1.92
2023-05-17T02:31:06.215Z,1.60
2023-05-17T02:33:35.437Z,1.60
2023-05-17T02:36:04.194Z,1.50
2023-05-17T02:38:32.792Z,1.50
2023-05-17T02:41:01.290Z,1.52
2023-05-17T02:43:29.783Z,1.50
2023-05-17T02:45:58.418Z,1.70
2023-05-17T02:48:28.348Z,1.73
2023-05-17T02:50:56.886Z,1.50
2023-05-17T02:53:25.532Z,1.67
2023-05-17T02:55:57.938Z,1.52
2023-05-17T02:58:26.791Z,1.40
2023-05-17T03:00:55.476Z,1.40
2023-05-17T03:03:25.435Z,1.50
2023-05-17T03:05:55.762Z,1.40
2023-05-17T03:08:25.007Z,1.35
2023-05-17T03:10:53.613Z,1.30
2023-05-17T03:13:22.440Z,1.30
2023-05-17T03:15:51.598Z,1.30
2023-05-17T03:18:20.263Z,1.35
2023-05-17T03:20:49.386Z,1.38
2023-05-17T03:23:19.682Z,1.17
2023-05-17T03:25:55.385Z,1.30
2023-05-17T03:28:23.971Z,1.50
2023-05-17T03:30:53.161Z,1.40
2023-05-17T03:33:22.256Z,1.30
2023-05-17T03:35:50.942Z,1.35
2023-05-17T03:38:20.922Z,1.45
2023-05-17T03:40:49.545Z,1.33
2023-05-17T03:43:18.753Z,1.60
2023-05-17T03:45:48.413Z,1.50
2023-05-17T03:48:19.372Z,1.60
2023-05-17T03:50:47.941Z,1.50
2023-05-17T03:53:16.791Z,1.60
2023-05-17T03:55:46.734Z,1.70
2023-05-17T03:58:15.749Z,1.40
2023-05-17T04:00:44.410Z,1.50
2023-05-17T04:03:19.344Z,1.50
2023-05-17T04:05:51.560Z,1.65
2023-05-17T04:08:20.068Z,1.77
2023-05-17T04:10:49.992Z,1.60
2023-05-17T04:13:18.434Z,1.30
2023-05-17T04:15:47.640Z,1.40
2023-05-17T04:18:17.875Z,1.60
2023-05-17T04:20:46.589Z,1.40
2023-05-17T04:23:15.242Z,1.50
2023-05-17T04:25:44.948Z,1.42
2023-05-17T04:28:14.915Z,1.40
2023-05-17T04:30:43.705Z,1.65
2023-05-17T04:33:14.085Z,1.35
2023-05-17T04:35:43.667Z,1.60
2023-05-17T04:38:12.416Z,1.80
2023-05-17T04:40:41.494Z,1.50
2023-05-17T04:43:10.408Z,1.40
2023-05-17T04:45:41.172Z,1.77
2023-05-17T04:48:09.851Z,2.20
2023-05-17T04:50:38.556Z,1.70
2023-05-17T04:53:07.752Z,2.67
2023-05-17T04:55:38.445Z,2.78
2023-05-17T04:58:07.850Z,4.10
2023-05-17T05:00:37.489Z,2.78
2023-05-17T05:03:08.793Z,5.05
2023-05-17T05:05:38.068Z,3.85
2023-05-17T05:08:06.958Z,3.50
2023-05-17T05:10:36.075Z,3.60
2023-05-17T05:13:04.692Z,3.20
2023-05-17T05:15:33.913Z,4.00
2023-05-17T05:18:03.657Z,3.35
2023-05-17T05:20:34.047Z,3.17
2023-05-17T05:23:06.370Z,3.90
2023-05-17T05:25:36.580Z,4.78
2023-05-17T05:28:05.805Z,3.50
2023-05-17T05:30:36.550Z,4.05
2023-05-17T05:33:06.417Z,4.07
2023-05-17T05:35:38.481Z,4.35
2023-05-17T05:38:07.777Z,3.92
2023-05-17T05:40:37.473Z,4.43
2023-05-17T05:43:06.260Z,3.90
2023-05-17T05:45:34.794Z,4.32
2023-05-17T05:48:05.939Z,3.80
2023-05-17T05:50:37.183Z,3.88
2023-05-17T05:53:18.875Z,4.25
2023-05-17T05:55:56.965Z,3.40
2023-05-17T05:58:26.121Z,4.68
2023-05-17T06:00:54.785Z,4.75
2023-05-17T06:03:23.786Z,4.88
2023-05-17T06:05:53.897Z,3.85
2023-05-17T06:08:22.775Z,4.32
2023-05-17T06:10:51.359Z,3.85
2023-05-17T06:13:22.548Z,3.10
2023-05-17T06:15:51.270Z,3.20
2023-05-17T06:18:20.198Z,2.90
2023-05-17T06:20:49.017Z,3.00
2023-05-17T06:23:18.961Z,2.80
2023-05-17T06:25:47.909Z,3.20
2023-05-17T06:28:16.748Z,3.03
2023-05-17T06:30:46.752Z,2.50
2023-05-17T06:33:15.469Z,2.88
2023-05-17T06:38:26.018Z,2.10
2023-05-17T06:40:58.501Z,1.90
2023-05-17T06:43:27.241Z,2.28
2023-05-17T06:45:55.800Z,2.45
2023-05-17T06:48:24.565Z,2.03
2023-05-17T06:50:53.517Z,1.92
2023-05-17T06:53:22.457Z,1.77
2023-05-17T06:55:52.557Z,1.65
2023-05-17T06:58:21.267Z,1.90
2023-05-17T07:00:50.112Z,1.90
2023-05-17T07:03:18.982Z,1.80
2023-05-17T07:05:47.555Z,1.80
2023-05-17T07:08:16.298Z,1.50
2023-05-17T07:10:44.906Z,1.67
2023-05-17T07:13:14.763Z,1.95
2023-05-17T07:15:44.005Z,2.08
2023-05-17T07:18:13.120Z,1.65
2023-05-17T07:20:41.881Z,1.90
2023-05-17T07:23:10.367Z,1.80
2023-05-17T07:25:40.502Z,2.00
2023-05-17T07:28:09.085Z,1.75
2023-05-17T07:30:39.413Z,1.70
2023-05-17T07:33:08.240Z,1.52
2023-05-17T07:35:37.229Z,1.73
2023-05-17T07:38:05.903Z,1.75
2023-05-17T07:40:34.651Z,2.00
2023-05-17T07:43:03.350Z,1.70
2023-05-17T07:45:32.180Z,1.77
2023-05-17T07:48:02.630Z,2.20
2023-05-17T07:50:37.153Z,2.10
2023-05-17T07:55:34.974Z,2.10
2023-05-17T07:58:03.702Z,2.08
2023-05-17T08:00:33.142Z,2.05
2023-05-17T08:03:03.084Z,1.83
2023-05-17T08:05:32.321Z,1.90
2023-05-17T08:08:01.344Z,1.70
2023-05-17T08:10:32.480Z,1.80
2023-05-17T08:13:01.367Z,1.75
2023-05-17T08:15:30.793Z,1.92
2023-05-17T08:18:01.458Z,1.80
2023-05-17T08:20:33.624Z,1.80
2023-05-17T08:23:03.115Z,1.60
2023-05-17T08:25:32.060Z,1.50
2023-05-17T08:28:02.500Z,1.65
2023-05-17T08:30:31.469Z,1.70
2023-05-17T08:33:00.653Z,1.50
2023-05-17T08:35:29.403Z,1.40
2023-05-17T08:37:59.320Z,1.55
2023-05-17T08:40:29.378Z,1.55
2023-05-17T08:42:58.655Z,1.40
2023-05-17T08:45:29.417Z,1.80
2023-05-17T08:47:58.541Z,1.63
2023-05-17T08:50:30.463Z,1.42
2023-05-17T08:53:01.869Z,1.50
2023-05-17T08:55:33.131Z,1.55
2023-05-17T08:58:02.349Z,1.80
2023-05-17T09:00:33.438Z,1.70
2023-05-17T09:03:02.306Z,1.73
2023-05-17T09:05:31.181Z,1.35
2023-05-17T09:08:01.732Z,1.40
2023-05-17T09:10:31.624Z,1.30
2023-05-17T09:13:00.517Z,1.52
2023-05-17T09:15:30.550Z,1.60
2023-05-17T09:17:59.445Z,1.63
2023-05-17T09:20:34.155Z,1.50
2023-05-17T09:23:05.396Z,1.50
2023-05-17T09:25:34.211Z,1.40
2023-05-17T09:28:03.738Z,1.70
2023-05-17T09:30:34.226Z,1.33
2023-05-17T09:33:07.209Z,1.27
2023-05-17T09:35:37.032Z,1.48
2023-05-17T09:38:09.120Z,1.88
2023-05-17T09:40:42.239Z,1.50
2023-05-17T09:43:11.549Z,1.40
2023-05-17T09:45:40.322Z,1.50
2023-05-17T09:48:16.725Z,1.50
2023-05-17T09:50:47.389Z,1.58
2023-05-17T09:53:28.979Z,1.30
2023-05-17T09:55:59.867Z,1.70
2023-05-17T09:58:29.747Z,1.58
2023-05-17T10:01:01.745Z,1.48
2023-05-17T10:03:34.585Z,1.52
2023-05-17T10:06:05.429Z,1.40
2023-05-17T10:08:36.681Z,1.40
2023-05-17T10:11:08.933Z,1.30
2023-05-17T10:13:44.283Z,1.55
2023-05-17T10:16:15.710Z,1.42
2023-05-17T10:18:46.372Z,1.67
2023-05-17T10:21:15.953Z,1.50
2023-05-17T10:23:47.478Z,1.70
2023-05-17T10:26:17.266Z,1.70
2023-05-17T10:28:47.460Z,1.60
2023-05-17T10:31:16.615Z,1.88
2023-05-17T10:33:48.649Z,1.90
2023-05-17T10:36:21.538Z,1.70
2023-05-17T10:38:53.592Z,1.60
2023-05-17T10:41:25.004Z,1.50
2023-05-17T10:43:55.854Z,1.58
2023-05-17T10:46:25.067Z,1.73
2023-05-17T10:48:55.409Z,1.65
2023-05-17T10:51:25.570Z,1.73
2023-05-17T10:54:09.761Z,1.52
2023-05-17T10:56:42.829Z,1.90
2023-05-17T10:59:23.459Z,1.40
2023-05-17T11:01:54.400Z,1.55
2023-05-17T11:04:25.674Z,1.17
2023-05-17T11:06:57.202Z,1.35
2023-05-17T11:09:27.781Z,1.52
2023-05-17T11:12:09.949Z,1.83
2023-05-17T11:14:54.341Z,1.75
2023-05-17T11:17:26.518Z,1.60
2023-05-17T11:20:11.667Z,1.40
2023-05-17T11:22:44.589Z,1.50
2023-05-17T11:25:15.836Z,1.20
2023-05-17T11:27:50.544Z,1.27
2023-05-17T11:30:20.743Z,1.38
2023-05-17T11:32:51.858Z,1.20
2023-05-17T11:35:25.870Z,1.20
2023-05-17T11:38:15.599Z,1.40
2023-05-17T11:40:50.435Z,1.60
2023-05-17T11:43:21.615Z,1.30
2023-05-17T11:45:53.540Z,1.30
2023-05-17T11:48:24.302Z,1.38
2023-05-17T11:50:54.768Z,1.42
2023-05-17T11:53:25.576Z,1.52
2023-05-17T11:55:56.524Z,1.25
2023-05-17T11:58:30.557Z,1.50
2023-05-17T12:00:59.928Z,1.58
2023-05-17T12:03:33.294Z,1.48
2023-05-17T12:06:08.154Z,1.23
2023-05-17T12:08:40.854Z,1.40
2023-05-17T12:11:14.741Z,1.30
2023-05-17T12:13:44.016Z,1.50
2023-05-17T12:16:16.809Z,1.30
2023-05-17T12:18:50.190Z,1.52
2023-05-17T12:21:21.453Z,1.55
2023-05-17T12:23:52.870Z,1.30
2023-05-17T12:26:26.639Z,1.20
2023-05-17T12:28:57.377Z,1.40
2023-05-17T12:31:29.842Z,1.20
2023-05-17T12:34:02.808Z,1.30
2023-05-17T12:36:33.644Z,1.38
2023-05-17T12:39:03.282Z,1.27
2023-05-17T12:41:33.794Z,1.60
2023-05-17T12:44:14.832Z,1.50
2023-05-17T12:46:44.576Z,1.30
2023-05-17T12:49:13.458Z,1.50
2023-05-17T12:51:43.892Z,1.50
2023-05-17T12:54:13.878Z,1.20
2023-05-17T12:56:45.044Z,1.50
2023-05-17T12:59:17.447Z,1.50
2023-05-17T13:01:47.931Z,1.50
2023-05-17T13:04:18.181Z,1.38
2023-05-17T13:06:48.294Z,1.27
2023-05-17T13:09:20.136Z,1.20
2023-05-17T13:11:53.995Z,1.30
2023-05-17T13:14:36.515Z,1.40
2023-05-17T13:17:08.679Z,1.15
2023-05-17T13:19:37.577Z,1.20
2023-05-17T13:22:07.367Z,1.45
2023-05-17T13:24:37.752Z,1.40
2023-05-17T13:27:08.417Z,1.40
2023-05-17T13:29:41.649Z,1.45
2023-05-17T13:32:12.656Z,1.40
2023-05-17T13:34:42.057Z,1.30
2023-05-17T13:37:12.334Z,1.40
2023-05-17T13:39:42.195Z,1.30
2023-05-17T13:42:13.177Z,1.35
2023-05-17T13:44:43.244Z,1.30
2023-05-17T13:47:12.151Z,1.45
2023-05-17T13:49:41.229Z,1.30
2023-05-17T13:52:10.111Z,1.70
2023-05-17T13:54:39.060Z,1.58
2023-05-17T13:57:08.308Z,1.25
2023-05-17T13:59:39.270Z,1.52
2023-05-17T14:02:09.136Z,1.70
2023-05-17T14:04:37.708Z,1.50
2023-05-17T14:07:08.048Z,1.52
2023-05-17T14:09:36.879Z,1.23
2023-05-17T14:12:05.995Z,1.77
2023-05-17T14:14:34.544Z,1.50
2023-05-17T14:17:04.728Z,1.45
2023-05-17T14:19:33.367Z,1.50
2023-05-17T14:22:01.917Z,1.42
2023-05-17T14:24:30.556Z,1.50
2023-05-17T14:26:59.301Z,1.30
2023-05-17T14:29:27.803Z,1.40
2023-05-17T14:31:56.240Z,1.38
2023-05-17T14:34:26.218Z,1.38
2023-05-17T14:36:54.768Z,1.60
2023-05-17T14:39:23.311Z,1.40
2023-05-17T14:41:51.941Z,1.70
2023-05-17T14:44:20.472Z,1.73
2023-05-17T14:46:50.135Z,1.50
2023-05-17T14:49:18.690Z,1.40
2023-05-17T14:51:48.784Z,1.70
2023-05-17T14:54:18.306Z,1.40
2023-05-17T14:56:47.188Z,1.65
2023-05-17T14:59:18.411Z,1.50
2023-05-17T15:01:46.806Z,1.52
2023-05-17T15:04:18.098Z,2.00
2023-05-17T15:06:48.451Z,1.58
2023-05-17T15:09:22.788Z,1.40
2023-05-17T15:11:54.591Z,1.30
2023-05-17T15:14:24.369Z,1.30
2023-05-17T15:16:53.988Z,1.50
2023-05-17T15:19:22.979Z,1.60
2023-05-17T15:21:53.031Z,1.73
2023-05-17T15:24:21.586Z,1.40
2023-05-17T15:26:53.242Z,1.50
2023-05-17T15:29:21.966Z,1.42
2023-05-17T15:31:53.271Z,1.48
2023-05-17T15:34:21.813Z,1.77
2023-05-17T15:36:50.763Z,1.70
2023-05-17T15:39:20.691Z,1.48
2023-05-17T15:41:49.202Z,1.55
2023-05-17T15:44:18.756Z,1.80
2023-05-17T15:46:47.440Z,1.77
2023-05-17T15:49:16.085Z,1.75
2023-05-17T15:51:44.533Z,1.88
2023-05-17T15:54:13.093Z,1.42
2023-05-17T15:56:43.112Z,1.50
2023-05-17T15:59:14.511Z,1.40
2023-05-17T16:01:46.267Z,1.50
2023-05-17T16:04:14.928Z,1.50
2023-05-17T16:06:43.683Z,1.42
2023-05-17T16:09:14.390Z,1.40
2023-05-17T16:11:47.159Z,1.40
2023-05-17T16:14:15.778Z,1.58
2023-05-17T16:16:45.289Z,1.48
2023-05-17T16:19:14.210Z,1.50
2023-05-17T16:21:42.912Z,1.40
2023-05-17T16:24:11.382Z,1.40
2023-05-17T16:26:40.084Z,1.40
2023-05-17T16:29:10.102Z,1.50
2023-05-17T16:31:38.885Z,1.65
2023-05-17T16:34:07.588Z,1.40
2023-05-17T16:36:39.095Z,1.48
2023-05-17T16:39:07.853Z,1.50
2023-05-17T16:41:37.377Z,1.55
2023-05-17T16:44:06.257Z,1.48
2023-05-17T16:46:36.140Z,1.70
2023-05-17T16:49:04.785Z,1.70
2023-05-17T16:51:33.289Z,1.45
2023-05-17T16:54:01.902Z,1.63
2023-05-17T16:56:30.550Z,1.30
2023-05-17T16:58:59.618Z,1.33
2023-05-17T17:01:28.182Z,1.60
2023-05-17T17:03:58.191Z,1.85
2023-05-17T17:06:26.912Z,1.60
2023-05-17T17:08:55.553Z,1.50
2023-05-17T17:11:24.065Z,1.70
2023-05-17T17:13:52.586Z,1.52
2023-05-17T17:16:21.386Z,1.45
2023-05-17T17:18:50.433Z,1.40
2023-05-17T17:21:20.426Z,1.40
2023-05-17T17:23:48.959Z,1.52
2023-05-17T17:26:17.462Z,1.80
2023-05-17T17:28:46.121Z,1.60
2023-05-17T17:31:14.733Z,1.52
2023-05-17T17:33:43.212Z,1.70
2023-05-17T17:36:11.989Z,1.52
2023-05-17T17:38:41.950Z,1.60
2023-05-17T17:41:10.471Z,1.77
2023-05-17T17:43:39.041Z,1.52
2023-05-17T17:46:07.541Z,1.63
2023-05-17T17:48:36.141Z,1.70
2023-05-17T17:51:05.018Z,1.45
2023-05-17T17:53:33.512Z,1.55
2023-05-17T17:56:03.408Z,1.70
2023-05-17T17:58:31.941Z,1.50
2023-05-17T18:01:00.471Z,1.70
2023-05-17T18:03:29.116Z,1.40
2023-05-17T18:05:57.550Z,1.60
2023-05-17T18:08:26.173Z,1.58
2023-05-17T18:10:54.971Z,1.60
2023-05-17T18:13:24.951Z,1.35
2023-05-17T18:15:53.480Z,1.50
2023-05-17T18:18:22.038Z,1.58
2023-05-17T18:20:51.523Z,1.45
2023-05-17T18:23:20.044Z,1.35
2023-05-17T18:25:50.666Z,1.33
2023-05-17T18:28:29.960Z,1.65
2023-05-17T18:33:36.141Z,1.40
2023-05-17T18:36:05.017Z,1.20
2023-05-17T18:38:35.498Z,1.27
2023-05-17T18:41:04.307Z,1.30
2023-05-17T18:43:32.845Z,1.42
2023-05-17T18:46:01.405Z,1.38
2023-05-17T18:48:36.149Z,1.50
2023-05-17T18:51:04.976Z,1.58
2023-05-17T18:53:33.633Z,1.52
2023-05-17T18:56:02.612Z,1.30
2023-05-17T18:58:31.211Z,1.23
2023-05-17T19:01:01.540Z,1.63
2023-05-17T19:03:32.017Z,1.52
2023-05-17T19:06:00.658Z,1.40
2023-05-17T19:08:29.381Z,1.90
2023-05-17T19:10:57.875Z,1.48
2023-05-17T19:13:27.161Z,1.50
2023-05-17T19:15:55.692Z,1.33
2023-05-17T19:18:24.433Z,1.20
2023-05-17T19:20:54.389Z,1.17
2023-05-17T19:23:23.098Z,1.42
2023-05-17T19:25:53.445Z,1.25
2023-05-17T19:28:22.010Z,1.08
2023-05-17T19:30:50.959Z,1.30
2023-05-17T19:33:19.540Z,1.42
2023-05-17T19:35:48.148Z,1.30
2023-05-17T19:38:18.157Z,1.50
2023-05-17T19:40:47.233Z,1.30
2023-05-17T19:43:15.814Z,1.20
2023-05-17T19:45:44.587Z,1.20
2023-05-17T19:48:13.292Z,1.23
2023-05-17T19:50:41.931Z,1.25
2023-05-17T19:53:10.399Z,1.30
2023-05-17T19:55:41.114Z,1.00
2023-05-17T19:58:09.721Z,1.20
2023-05-17T20:00:38.453Z,1.30
2023-05-17T20:03:07.144Z,1.10
2023-05-17T20:05:35.816Z,1.10
2023-05-17T20:08:06.530Z,1.30
2023-05-17T20:10:35.411Z,1.10
2023-05-17T20:13:05.596Z,1.30
2023-05-17T20:15:34.344Z,1.30
2023-05-17T20:18:03.064Z,1.10
2023-05-17T20:20:31.965Z,1.25
2023-05-17T20:23:00.807Z,1.30
2023-05-17T20:25:29.434Z,1.20
2023-05-17T20:27:58.070Z,0.95
2023-05-17T20:30:28.309Z,1.50
2023-05-17T20:32:57.032Z,1.15
2023-05-17T20:35:28.729Z,1.10
2023-05-17T20:37:57.328Z,1.27
2023-05-17T20:40:26.027Z,1.23
2023-05-17T20:42:54.646Z,1.30
2023-05-17T20:45:23.301Z,1.27
2023-05-17T20:47:53.350Z,1.20
2023-05-17T20:50:22.750Z,1.48
2023-05-17T20:52:51.304Z,1.00
2023-05-17T20:55:20.271Z,1.30
2023-05-17T20:57:48.815Z,1.23
2023-05-17T21:00:18.662Z,1.20
2023-05-17T21:02:47.576Z,1.35
2023-05-17T21:05:17.672Z,1.30
2023-05-17T21:07:46.774Z,1.30
2023-05-17T21:10:15.414Z,1.20
2023-05-17T21:12:43.929Z,1.30
2023-05-17T21:15:17.100Z,1.15
2023-05-17T21:17:46.207Z,1.20
2023-05-17T21:20:15.096Z,1.20
2023-05-17T21:22:45.906Z,1.20
2023-05-17T21:25:14.628Z,1.20
2023-05-17T21:27:43.334Z,1.40
2023-05-17T21:30:12.481Z,1.20
2023-05-17T21:32:41.039Z,1.02
2023-05-17T21:35:09.885Z,1.45
2023-05-17T21:37:40.117Z,1.50
2023-05-17T21:40:11.184Z,1.30
2023-05-17T21:42:40.001Z,1.17
2023-05-17T21:45:09.561Z,1.13
2023-05-17T21:47:38.382Z,1.20
2023-05-17T21:50:07.779Z,1.20
2023-05-17T21:52:36.425Z,1.00
2023-05-17T21:55:05.788Z,1.20
2023-05-17T21:57:36.467Z,1.13
2023-05-17T22:00:07.853Z,1.20
2023-05-17T22:02:36.592Z,1.30
2023-05-17T22:05:05.742Z,1.30
2023-05-17T22:07:34.529Z,1.30
2023-05-17T22:10:03.300Z,1.20
2023-05-17T22:12:34.955Z,1.10
2023-05-17T22:15:05.499Z,1.10
2023-05-17T22:17:43.125Z,1.10
2023-05-17T22:20:19.648Z,1.15
2023-05-17T22:22:48.240Z,1.20
2023-05-17T22:25:17.721Z,1.13
2023-05-17T22:27:46.573Z,1.20
2023-05-17T22:30:16.766Z,1.38
2023-05-17T22:32:45.418Z,1.10
2023-05-17T22:35:13.966Z,1.30
2023-05-17T22:37:43.357Z,1.25
2023-05-17T22:40:12.298Z,1.30
2023-05-17T22:42:41.745Z,1.20
2023-05-17T22:45:12.645Z,1.25
2023-05-17T22:47:43.621Z,1.15
2023-05-17T22:50:14.470Z,1.20
2023-05-17T22:52:43.034Z,1.20
2023-05-17T22:55:11.836Z,1.30
2023-05-17T22:57:40.540Z,1.30
2023-05-17T23:00:11.526Z,1.30
2023-05-17T23:02:40.359Z,1.40
2023-05-17T23:05:11.241Z,1.20
2023-05-17T23:07:41.441Z,1.50
2023-05-17T23:10:11.622Z,1.15
2023-05-17T23:12:40.644Z,1.00
2023-05-17T23:15:10.671Z,1.30
2023-05-17T23:17:39.826Z,1.20
2023-05-17T23:20:12.118Z,1.30
2023-05-17T23:22:41.449Z,1.13
2023-05-17T23:25:10.778Z,1.10
2023-05-17T23:27:39.341Z,1.20
2023-05-17T23:30:09.504Z,1.23
2023-05-17T23:32:38.389Z,1.23
2023-05-17T23:35:09.230Z,1.52
2023-05-17T23:37:39.544Z,1.45
2023-05-17T23:40:09.473Z,1.40
2023-05-17T23:42:38.409Z,1.40
2023-05-17T23:45:09.295Z,1.30
2023-05-17T23:47:40.701Z,1.20
2023-05-17T23:50:10.379Z,1.30
2023-05-17T23:52:40.547Z,1.25
2023-05-17T23:55:09.876Z,1.20
2023-05-17T23:57:39.180Z,1.35
